sensor_id;sensor_type;location;lat;lon;timestamp;pressure;altitude;pressure_sealevel;temperature;humidity
7930;BME280;4010;42.698;23.124;2022-10-28T00:00:25;118349.16;;;-140.64;100.00
7930;BME280;4010;42.698;23.124;2022-10-28T00:02:51;118349.16;;;-140.64;100.00
7930;BME280;4010;42.698;23.124;2022-10-28T00:05:19;118349.16;;;-140.64;100.00
7930;BME280;4010;42.698;23.124;2022-10-28T00:07:46;118349.16;;;-140.64;100.00
7930;BME280;4010;42.698;23.124;2022-10-28T00:10:13;118349.16;;;-140.64;100.00
7930;BME280;4010;42.698;23.124;2022-10-28T00:12:40;118349.16;;;-140.64;100.00
7930;BME280;4010;42.698;23.124;2022-10-28T00:15:07;118349.16;;;-140.64;100.00
7930;BME280;4010;42.698;23.124;2022-10-28T00:17:34;118349.16;;;-140.64;100.00
7930;BME280;4010;42.698;23.124;2022-10-28T00:20:00;118349.16;;;-140.64;100.00
7930;BME280;4010;42.698;23.124;2022-10-28T00:22:28;118349.16;;;-140.64;100.00
7930;BME280;4010;42.698;23.124;2022-10-28T00:24:55;118349.16;;;-140.64;100.00
7930;BME280;4010;42.698;23.124;2022-10-28T00:27:22;117775.00;;;-140.64;100.00
7930;BME280;4010;42.698;23.124;2022-10-28T00:29:49;116832.72;;;-140.64;100.00
7930;BME280;4010;42.698;23.124;2022-10-28T00:32:15;117548.69;;;-140.64;100.00
7930;BME280;4010;42.698;23.124;2022-10-28T00:34:42;118349.16;;;-140.64;100.00
7930;BME280;4010;42.698;23.124;2022-10-28T00:37:09;118349.16;;;-140.64;100.00
7930;BME280;4010;42.698;23.124;2022-10-28T00:39:37;118349.16;;;-140.64;100.00
7930;BME280;4010;42.698;23.124;2022-10-28T00:42:03;118349.16;;;-140.64;100.00
7930;BME280;4010;42.698;23.124;2022-10-28T00:44:47;118349.16;;;-140.64;100.00
7930;BME280;4010;42.698;23.124;2022-10-28T00:47:22;118349.16;;;-140.64;100.00
7930;BME280;4010;42.698;23.124;2022-10-28T00:49:51;118349.16;;;-140.64;100.00
7930;BME280;4010;42.698;23.124;2022-10-28T00:52:21;118349.16;;;-140.64;100.00
7930;BME280;4010;42.698;23.124;2022-10-28T00:54:51;118349.16;;;-140.64;100.00
7930;BME280;4010;42.698;23.124;2022-10-28T00:57:21;118349.16;;;-140.64;100.00
7930;BME280;4010;42.698;23.124;2022-10-28T00:59:51;118349.16;;;-140.64;100.00
7930;BME280;4010;42.698;23.124;2022-10-28T01:02:19;118349.16;;;-140.64;100.00
7930;BME280;4010;42.698;23.124;2022-10-28T01:04:46;118349.16;;;-140.64;100.00
7930;BME280;4010;42.698;23.124;2022-10-28T01:07:14;118349.16;;;-140.64;100.00
7930;BME280;4010;42.698;23.124;2022-10-28T01:09:41;118349.16;;;-140.64;100.00
7930;BME280;4010;42.698;23.124;2022-10-28T01:12:16;118349.16;;;-140.64;100.00
7930;BME280;4010;42.698;23.124;2022-10-28T01:14:57;118349.16;;;-140.64;100.00
7930;BME280;4010;42.698;23.124;2022-10-28T01:17:49;118349.16;;;-140.64;100.00
7930;BME280;4010;42.698;23.124;2022-10-28T01:23:37;115055.84;;;-140.64;100.00
7930;BME280;4010;42.698;23.124;2022-10-28T01:26:29;118349.16;;;-140.64;100.00
7930;BME280;4010;42.698;23.124;2022-10-28T01:29:24;117454.03;;;-140.64;100.00
7930;BME280;4010;42.698;23.124;2022-10-28T01:31:56;115234.72;;;-140.64;100.00
7930;BME280;4010;42.698;23.124;2022-10-28T01:34:29;115506.13;;;-140.64;100.00
7930;BME280;4010;42.698;23.124;2022-10-28T01:36:58;117334.69;;;-140.64;100.00
7930;BME280;4010;42.698;23.124;2022-10-28T01:39:35;118349.16;;;-140.64;100.00
7930;BME280;4010;42.698;23.124;2022-10-28T01:42:12;118349.16;;;-140.64;100.00
7930;BME280;4010;42.698;23.124;2022-10-28T01:44:47;115222.38;;;-140.64;100.00
7930;BME280;4010;42.698;23.124;2022-10-28T01:47:21;118349.16;;;-140.64;100.00
7930;BME280;4010;42.698;23.124;2022-10-28T01:49:53;118349.16;;;-140.64;100.00
7930;BME280;4010;42.698;23.124;2022-10-28T01:52:24;118349.16;;;-140.64;100.00
7930;BME280;4010;42.698;23.124;2022-10-28T01:54:54;118349.16;;;-140.64;100.00
7930;BME280;4010;42.698;23.124;2022-10-28T01:57:24;118349.16;;;-140.64;100.00
7930;BME280;4010;42.698;23.124;2022-10-28T01:59:53;117974.63;;;-140.64;100.00
7930;BME280;4010;42.698;23.124;2022-10-28T02:02:22;118349.16;;;-140.64;100.00
7930;BME280;4010;42.698;23.124;2022-10-28T02:04:50;118349.16;;;-140.64;100.00
7930;BME280;4010;42.698;23.124;2022-10-28T02:07:16;118349.16;;;-140.64;100.00
7930;BME280;4010;42.698;23.124;2022-10-28T02:09:56;118349.16;;;-140.64;100.00
7930;BME280;4010;42.698;23.124;2022-10-28T02:12:28;118349.16;;;-140.64;100.00
7930;BME280;4010;42.698;23.124;2022-10-28T02:15:16;118349.16;;;-140.64;100.00
7930;BME280;4010;42.698;23.124;2022-10-28T02:17:53;118349.16;;;-140.64;100.00
7930;BME280;4010;42.698;23.124;2022-10-28T02:20:31;118231.84;;;-140.64;100.00
7930;BME280;4010;42.698;23.124;2022-10-28T02:23:07;112297.66;;;-140.64;100.00
7930;BME280;4010;42.698;23.124;2022-10-28T02:25:41;114089.63;;;-140.64;100.00
7930;BME280;4010;42.698;23.124;2022-10-28T02:28:11;112560.66;;;-140.64;100.00
7930;BME280;4010;42.698;23.124;2022-10-28T02:30:45;107042.22;;;-140.64;100.00
7930;BME280;4010;42.698;23.124;2022-10-28T02:33:17;108880.72;;;-140.64;100.00
7930;BME280;4010;42.698;23.124;2022-10-28T02:35:48;110457.34;;;-140.64;100.00
7930;BME280;4010;42.698;23.124;2022-10-28T02:38:17;110194.53;;;-140.64;100.00
7930;BME280;4010;42.698;23.124;2022-10-28T02:40:49;109143.44;;;-140.64;100.00
7930;BME280;4010;42.698;23.124;2022-10-28T02:43:18;108880.72;;;-140.64;100.00
7930;BME280;4010;42.698;23.124;2022-10-28T02:45:48;107304.78;;;-140.64;100.00
7930;BME280;4010;42.698;23.124;2022-10-28T02:48:21;105729.59;;;-140.64;100.00
7930;BME280;4010;42.698;23.124;2022-10-28T02:50:53;106779.66;;;-140.64;100.00
7930;BME280;4010;42.698;23.124;2022-10-28T02:53:27;106779.66;;;-140.64;100.00
7930;BME280;4010;42.698;23.124;2022-10-28T02:55:57;103630.41;;;-140.64;100.00
7930;BME280;4010;42.698;23.124;2022-10-28T02:58:25;106779.66;;;-140.64;100.00
7930;BME280;4010;42.698;23.124;2022-10-28T03:00:52;108880.72;;;-140.64;100.00
7930;BME280;4010;42.698;23.124;2022-10-28T03:03:20;109143.44;;;-140.64;100.00
7930;BME280;4010;42.698;23.124;2022-10-28T03:05:47;106779.66;;;-140.64;100.00
7930;BME280;4010;42.698;23.124;2022-10-28T03:08:14;107304.78;;;-140.64;100.00
7930;BME280;4010;42.698;23.124;2022-10-28T03:10:40;108092.66;;;-140.64;100.00
7930;BME280;4010;42.698;23.124;2022-10-28T03:13:07;106779.66;;;-140.64;100.00
7930;BME280;4010;42.698;23.124;2022-10-28T03:15:34;108880.72;;;-140.64;100.00
7930;BME280;4010;42.698;23.124;2022-10-28T03:18:01;109143.44;;;-140.64;100.00
7930;BME280;4010;42.698;23.124;2022-10-28T03:20:29;108355.34;;;-140.64;100.00
7930;BME280;4010;42.698;23.124;2022-10-28T03:22:55;109143.44;;;-140.64;100.00
7930;BME280;4010;42.698;23.124;2022-10-28T03:25:22;109931.75;;;-140.64;100.00
7930;BME280;4010;42.698;23.124;2022-10-28T03:27:49;107830.03;;;-140.64;100.00
7930;BME280;4010;42.698;23.124;2022-10-28T03:30:16;103892.72;;;-140.64;100.00
7930;BME280;4010;42.698;23.124;2022-10-28T03:32:43;106254.56;;;-140.64;100.00
7930;BME280;4010;42.698;23.124;2022-10-28T03:35:10;108092.66;;;-140.64;100.00
7930;BME280;4010;42.698;23.124;2022-10-28T03:37:41;107830.03;;;-140.64;100.00
7930;BME280;4010;42.698;23.124;2022-10-28T03:40:09;103368.09;;;-140.64;100.00
7930;BME280;4010;42.698;23.124;2022-10-28T03:42:36;108092.66;;;-140.64;100.00
7930;BME280;4010;42.698;23.124;2022-10-28T03:45:06;103368.09;;;-140.64;100.00
7930;BME280;4010;42.698;23.124;2022-10-28T03:47:33;105729.59;;;-140.64;100.00
7930;BME280;4010;42.698;23.124;2022-10-28T03:50:00;104679.81;;;-140.64;100.00
7930;BME280;4010;42.698;23.124;2022-10-28T03:52:26;110983.06;;;-140.64;100.00
7930;BME280;4010;42.698;23.124;2022-10-28T03:54:54;112034.72;;;-140.64;100.00
7930;BME280;4010;42.698;23.124;2022-10-28T03:57:21;111771.75;;;-140.64;100.00
7930;BME280;4010;42.698;23.124;2022-10-28T03:59:48;110983.06;;;-140.64;100.00
7930;BME280;4010;42.698;23.124;2022-10-28T04:02:15;108355.34;;;-140.64;100.00
7930;BME280;4010;42.698;23.124;2022-10-28T04:04:41;105992.06;;;-140.64;100.00
7930;BME280;4010;42.698;23.124;2022-10-28T04:07:08;109668.94;;;-140.64;100.00
7930;BME280;4010;42.698;23.124;2022-10-28T04:09:35;110457.34;;;-140.64;100.00
7930;BME280;4010;42.698;23.124;2022-10-28T04:12:04;108880.72;;;-140.64;100.00
7930;BME280;4010;42.698;23.124;2022-10-28T04:14:31;109668.94;;;-140.64;100.00
7930;BME280;4010;42.698;23.124;2022-10-28T04:16:58;110194.53;;;-140.64;100.00
7930;BME280;4010;42.698;23.124;2022-10-28T04:19:24;109668.94;;;-140.64;100.00
7930;BME280;4010;42.698;23.124;2022-10-28T04:21:51;109931.75;;;-140.64;100.00
7930;BME280;4010;42.698;23.124;2022-10-28T04:24:18;106254.56;;;-140.64;100.00
7930;BME280;4010;42.698;23.124;2022-10-28T04:26:44;109143.44;;;-140.64;100.00
7930;BME280;4010;42.698;23.124;2022-10-28T04:29:12;115096.94;;;-140.64;100.00
7930;BME280;4010;42.698;23.124;2022-10-28T04:31:39;118073.38;;;-140.64;100.00
7930;BME280;4010;42.698;23.124;2022-10-28T04:34:06;118120.72;;;-140.64;100.00
7930;BME280;4010;42.698;23.124;2022-10-28T04:36:33;117635.09;;;-140.64;100.00
7930;BME280;4010;42.698;23.124;2022-10-28T04:38:59;113086.66;;;-140.64;100.00
7930;BME280;4010;42.698;23.124;2022-10-28T04:41:26;115820.78;;;-140.64;100.00
7930;BME280;4010;42.698;23.124;2022-10-28T04:43:53;118349.16;;;-140.64;100.00
7930;BME280;4010;42.698;23.124;2022-10-28T04:46:22;118349.16;;;-140.64;100.00
7930;BME280;4010;42.698;23.124;2022-10-28T04:48:48;113086.66;;;-140.64;100.00
7930;BME280;4010;42.698;23.124;2022-10-28T04:51:15;113612.78;;;-140.64;100.00
7930;BME280;4010;42.698;23.124;2022-10-28T04:53:42;111245.94;;;-140.64;100.00
7930;BME280;4010;42.698;23.124;2022-10-28T04:56:08;109406.19;;;-140.64;100.00
7930;BME280;4010;42.698;23.124;2022-10-28T04:58:35;107567.41;;;-140.64;100.00
7930;BME280;4010;42.698;23.124;2022-10-28T05:01:04;102056.84;;;-140.64;100.00
7930;BME280;4010;42.698;23.124;2022-10-28T05:03:33;101794.66;;;-140.64;100.00
7930;BME280;4010;42.698;23.124;2022-10-28T05:06:00;102581.28;;;-140.64;100.00
7930;BME280;4010;42.698;23.124;2022-10-28T05:08:26;103105.78;;;-140.64;100.00
7930;BME280;4010;42.698;23.124;2022-10-28T05:10:53;101532.47;;;-140.64;100.00
7930;BME280;4010;42.698;23.124;2022-10-28T05:13:20;99173.81;;;-140.64;100.00
7930;BME280;4010;42.698;23.124;2022-10-28T05:15:47;98126.06;;;-140.64;100.00
7930;BME280;4010;42.698;23.124;2022-10-28T05:18:14;94722.97;;;-140.64;100.00
7930;BME280;4010;42.698;23.124;2022-10-28T05:20:42;90277.78;;;-140.64;100.00
7930;BME280;4010;42.698;23.124;2022-10-28T05:23:09;87143.47;;;-140.64;100.00
7930;BME280;4010;42.698;23.124;2022-10-28T05:25:36;85577.38;;;-140.64;100.00
7930;BME280;4010;42.698;23.124;2022-10-28T05:28:04;83751.16;;;-140.64;100.00
7930;BME280;4010;42.698;23.124;2022-10-28T05:30:30;79841.09;;;-140.64;100.00
7930;BME280;4010;42.698;23.124;2022-10-28T05:33:01;79059.63;;;-140.64;100.00
7930;BME280;4010;42.698;23.124;2022-10-28T05:35:27;78017.91;;;-140.64;100.00
7930;BME280;4010;42.698;23.124;2022-10-28T05:37:56;76455.97;;;-140.64;100.00
7930;BME280;4010;42.698;23.124;2022-10-28T05:40:23;74374.47;;;-140.64;100.00
7930;BME280;4010;42.698;23.124;2022-10-28T05:42:50;71774.38;;;-140.64;100.00
7930;BME280;4010;42.698;23.124;2022-10-28T05:45:17;68916.53;;;-140.64;100.00
7930;BME280;4010;42.698;23.124;2022-10-28T05:47:44;66839.63;;;-140.64;100.00
7930;BME280;4010;42.698;23.124;2022-10-28T05:50:12;63726.63;;;-140.64;100.00
7930;BME280;4010;42.698;23.124;2022-10-28T05:52:39;60875.53;;;-140.64;100.00
7930;BME280;4010;42.698;23.124;2022-10-28T05:55:08;58285.69;;;-140.64;100.00
7930;BME280;4010;42.698;23.124;2022-10-28T05:57:35;56215.25;;;-140.64;100.00
7930;BME280;4010;42.698;23.124;2022-10-28T06:00:03;56473.97;;;-140.64;100.00
7930;BME280;4010;42.698;23.124;2022-10-28T06:02:30;57767.97;;;-140.64;100.00
7930;BME280;4010;42.698;23.124;2022-10-28T06:04:57;56991.50;;;-140.64;100.00
7930;BME280;4010;42.698;23.124;2022-10-28T06:07:23;56215.25;;;-140.64;100.00
7930;BME280;4010;42.698;23.124;2022-10-28T06:09:50;55439.16;;;-140.64;100.00
7930;BME280;4010;42.698;23.124;2022-10-28T06:12:18;54921.84;;;-140.64;100.00
7930;BME280;4010;42.698;23.124;2022-10-28T06:14:45;53887.50;;;-140.64;100.00
7930;BME280;4010;42.698;23.124;2022-10-28T06:17:11;52595.00;;;-140.64;100.00
7930;BME280;4010;42.698;23.124;2022-10-28T06:19:38;52078.13;;;-140.64;100.00
7930;BME280;4010;42.698;23.124;2022-10-28T06:22:05;52595.00;;;-140.64;100.00
7930;BME280;4010;42.698;23.124;2022-10-28T06:24:31;54404.63;;;-140.64;100.00
7930;BME280;4010;42.698;23.124;2022-10-28T06:26:58;63726.63;;;-140.64;100.00
7930;BME280;4010;42.698;23.124;2022-10-28T06:29:27;118349.16;;;-140.64;100.00
7930;BME280;4010;42.698;23.124;2022-10-28T06:31:53;118349.16;;;-140.64;100.00
7930;BME280;4010;42.698;23.124;2022-10-28T06:34:20;118349.16;;;-140.64;100.00
7930;BME280;4010;42.698;23.124;2022-10-28T06:36:47;118349.16;;;-140.64;100.00
7930;BME280;4010;42.698;23.124;2022-10-28T06:39:13;118349.16;;;-140.64;100.00
7930;BME280;4010;42.698;23.124;2022-10-28T06:41:40;118349.16;;;-140.64;100.00
7930;BME280;4010;42.698;23.124;2022-10-28T06:44:07;118349.16;;;-140.64;100.00
7930;BME280;4010;42.698;23.124;2022-10-28T06:46:35;118349.16;;;-140.64;100.00
7930;BME280;4010;42.698;23.124;2022-10-28T06:49:02;118349.16;;;-140.64;100.00
7930;BME280;4010;42.698;23.124;2022-10-28T06:51:29;118349.16;;;-140.64;100.00
7930;BME280;4010;42.698;23.124;2022-10-28T06:53:57;118349.16;;;-140.64;100.00
7930;BME280;4010;42.698;23.124;2022-10-28T06:56:24;118349.16;;;-140.64;100.00
7930;BME280;4010;42.698;23.124;2022-10-28T06:58:51;118349.16;;;-140.64;100.00
7930;BME280;4010;42.698;23.124;2022-10-28T07:01:18;118349.16;;;-140.64;100.00
7930;BME280;4010;42.698;23.124;2022-10-28T07:03:47;118349.16;;;-140.64;100.00
7930;BME280;4010;42.698;23.124;2022-10-28T07:06:15;118349.16;;;-140.64;100.00
7930;BME280;4010;42.698;23.124;2022-10-28T07:08:42;118349.16;;;-140.64;100.00
7930;BME280;4010;42.698;23.124;2022-10-28T07:11:08;118349.16;;;-140.64;100.00
7930;BME280;4010;42.698;23.124;2022-10-28T07:13:35;118349.16;;;-140.64;100.00
7930;BME280;4010;42.698;23.124;2022-10-28T07:16:02;118349.16;;;-140.64;100.00
7930;BME280;4010;42.698;23.124;2022-10-28T07:18:29;118349.16;;;-140.64;100.00
7930;BME280;4010;42.698;23.124;2022-10-28T07:20:58;118349.16;;;-140.64;100.00
7930;BME280;4010;42.698;23.124;2022-10-28T07:23:26;118349.16;;;-140.64;100.00
7930;BME280;4010;42.698;23.124;2022-10-28T07:25:54;118349.16;;;-140.64;100.00
7930;BME280;4010;42.698;23.124;2022-10-28T07:28:22;118349.16;;;-140.64;100.00
7930;BME280;4010;42.698;23.124;2022-10-28T07:30:49;118349.16;;;-140.64;100.00
7930;BME280;4010;42.698;23.124;2022-10-28T07:33:16;118349.16;;;-140.64;100.00
7930;BME280;4010;42.698;23.124;2022-10-28T07:35:43;118349.16;;;-140.64;100.00
7930;BME280;4010;42.698;23.124;2022-10-28T07:38:11;118349.16;;;-140.64;100.00
7930;BME280;4010;42.698;23.124;2022-10-28T07:40:37;118349.16;;;-140.64;100.00
7930;BME280;4010;42.698;23.124;2022-10-28T07:43:04;118349.16;;;-140.64;100.00
7930;BME280;4010;42.698;23.124;2022-10-28T07:45:31;118349.16;;;-140.64;100.00
7930;BME280;4010;42.698;23.124;2022-10-28T07:47:57;118349.16;;;-140.64;100.00
7930;BME280;4010;42.698;23.124;2022-10-28T07:50:24;118349.16;;;-140.64;100.00
7930;BME280;4010;42.698;23.124;2022-10-28T07:52:51;118349.16;;;-140.64;100.00
7930;BME280;4010;42.698;23.124;2022-10-28T07:55:19;118349.16;;;-140.64;100.00
7930;BME280;4010;42.698;23.124;2022-10-28T07:57:46;118349.16;;;-140.64;99.43
7930;BME280;4010;42.698;23.124;2022-10-28T08:00:13;118349.16;;;-140.64;99.94
7930;BME280;4010;42.698;23.124;2022-10-28T08:02:40;118349.16;;;-140.64;98.34
7930;BME280;4010;42.698;23.124;2022-10-28T08:05:07;118349.16;;;-140.64;97.34
7930;BME280;4010;42.698;23.124;2022-10-28T08:07:34;118349.16;;;-140.64;97.17
7930;BME280;4010;42.698;23.124;2022-10-28T08:10:01;118349.16;;;-140.64;96.56
7930;BME280;4010;42.698;23.124;2022-10-28T08:12:29;118349.16;;;-140.64;94.62
7930;BME280;4010;42.698;23.124;2022-10-28T08:14:56;118349.16;;;-140.64;96.25
7930;BME280;4010;42.698;23.124;2022-10-28T08:17:23;118349.16;;;-140.64;96.53
7930;BME280;4010;42.698;23.124;2022-10-28T08:19:50;118349.16;;;-140.64;94.89
7930;BME280;4010;42.698;23.124;2022-10-28T08:22:16;118349.16;;;-140.64;93.78
7930;BME280;4010;42.698;23.124;2022-10-28T08:24:43;118349.16;;;-140.64;94.88
7930;BME280;4010;42.698;23.124;2022-10-28T08:27:10;118349.16;;;-140.64;93.18
7930;BME280;4010;42.698;23.124;2022-10-28T08:29:38;118349.16;;;-140.64;95.42
7930;BME280;4010;42.698;23.124;2022-10-28T08:32:06;118349.16;;;-140.64;92.65
7930;BME280;4010;42.698;23.124;2022-10-28T08:34:33;118349.16;;;-140.64;92.86
7930;BME280;4010;42.698;23.124;2022-10-28T08:37:00;118349.16;;;-140.64;91.12
7930;BME280;4010;42.698;23.124;2022-10-28T08:39:26;118349.16;;;-140.64;92.00
7930;BME280;4010;42.698;23.124;2022-10-28T08:41:58;118349.16;;;-140.64;91.76
7930;BME280;4010;42.698;23.124;2022-10-28T08:44:46;118349.16;;;-140.64;88.62
7930;BME280;4010;42.698;23.124;2022-10-28T08:47:26;118349.16;;;-140.64;88.79
7930;BME280;4010;42.698;23.124;2022-10-28T08:50:02;118349.16;;;-140.64;88.46
7930;BME280;4010;42.698;23.124;2022-10-28T08:52:33;118349.16;;;-140.64;87.48
7930;BME280;4010;42.698;23.124;2022-10-28T08:55:06;118349.16;;;-140.64;86.99
7930;BME280;4010;42.698;23.124;2022-10-28T08:57:38;118349.16;;;-140.64;90.27
7930;BME280;4010;42.698;23.124;2022-10-28T09:00:17;118349.16;;;-140.64;87.58
7930;BME280;4010;42.698;23.124;2022-10-28T09:02:54;118349.16;;;-140.64;88.91
7930;BME280;4010;42.698;23.124;2022-10-28T09:05:23;118349.16;;;-140.64;84.34
7930;BME280;4010;42.698;23.124;2022-10-28T09:07:51;118349.16;;;-140.64;84.43
7930;BME280;4010;42.698;23.124;2022-10-28T09:10:32;118349.16;;;-140.64;82.81
7930;BME280;4010;42.698;23.124;2022-10-28T09:13:05;118349.16;;;-140.64;85.56
7930;BME280;4010;42.698;23.124;2022-10-28T09:15:41;118349.16;;;-140.64;81.90
7930;BME280;4010;42.698;23.124;2022-10-28T09:18:16;118349.16;;;-140.64;83.50
7930;BME280;4010;42.698;23.124;2022-10-28T09:20:51;118349.16;;;-140.64;78.97
7930;BME280;4010;42.698;23.124;2022-10-28T09:23:22;118349.16;;;-140.64;78.92
7930;BME280;4010;42.698;23.124;2022-10-28T09:25:58;118349.16;;;-140.64;79.19
7930;BME280;4010;42.698;23.124;2022-10-28T09:28:50;118349.16;;;-140.64;79.19
7930;BME280;4010;42.698;23.124;2022-10-28T09:31:27;118349.16;;;-140.64;84.01
7930;BME280;4010;42.698;23.124;2022-10-28T09:34:06;118349.16;;;-140.64;79.30
7930;BME280;4010;42.698;23.124;2022-10-28T09:36:39;118349.16;;;-140.64;78.39
7930;BME280;4010;42.698;23.124;2022-10-28T09:39:13;118349.16;;;-140.64;79.06
7930;BME280;4010;42.698;23.124;2022-10-28T09:41:43;118349.16;;;-140.64;80.02
7930;BME280;4010;42.698;23.124;2022-10-28T09:44:17;118349.16;;;-140.64;79.20
7930;BME280;4010;42.698;23.124;2022-10-28T09:46:49;118349.16;;;-140.64;75.57
7930;BME280;4010;42.698;23.124;2022-10-28T09:49:19;118349.16;;;-140.64;77.22
7930;BME280;4010;42.698;23.124;2022-10-28T09:51:51;118349.16;;;-140.64;74.09
7930;BME280;4010;42.698;23.124;2022-10-28T09:54:27;118349.16;;;-140.64;73.58
7930;BME280;4010;42.698;23.124;2022-10-28T09:56:55;118349.16;;;-140.64;70.88
7930;BME280;4010;42.698;23.124;2022-10-28T09:59:22;118349.16;;;-140.64;72.56
7930;BME280;4010;42.698;23.124;2022-10-28T10:01:50;118349.16;;;-140.64;71.62
7930;BME280;4010;42.698;23.124;2022-10-28T10:04:19;118349.16;;;-140.64;70.86
7930;BME280;4010;42.698;23.124;2022-10-28T10:06:49;118349.16;;;-140.64;75.29
7930;BME280;4010;42.698;23.124;2022-10-28T10:09:19;118349.16;;;-140.64;71.05
7930;BME280;4010;42.698;23.124;2022-10-28T10:11:49;118349.16;;;-140.64;67.72
7930;BME280;4010;42.698;23.124;2022-10-28T10:14:22;118349.16;;;-140.64;69.09
7930;BME280;4010;42.698;23.124;2022-10-28T10:16:54;118349.16;;;-140.64;66.34
7930;BME280;4010;42.698;23.124;2022-10-28T10:19:22;118349.16;;;-140.64;67.21
7930;BME280;4010;42.698;23.124;2022-10-28T10:21:50;118349.16;;;-140.64;63.72
7930;BME280;4010;42.698;23.124;2022-10-28T10:24:28;118349.16;;;-140.64;63.99
7930;BME280;4010;42.698;23.124;2022-10-28T10:26:56;118349.16;;;-140.64;65.11
7930;BME280;4010;42.698;23.124;2022-10-28T10:29:23;118349.16;;;-140.64;61.89
7930;BME280;4010;42.698;23.124;2022-10-28T10:32:05;118349.16;;;-140.64;63.41
7930;BME280;4010;42.698;23.124;2022-10-28T10:34:33;118349.16;;;-140.64;60.88
7930;BME280;4010;42.698;23.124;2022-10-28T10:37:01;118349.16;;;-140.64;59.28
7930;BME280;4010;42.698;23.124;2022-10-28T10:39:33;118349.16;;;-140.64;60.55
7930;BME280;4010;42.698;23.124;2022-10-28T10:42:00;118349.16;;;-140.64;59.10
7930;BME280;4010;42.698;23.124;2022-10-28T10:44:32;118349.16;;;-140.64;57.78
7930;BME280;4010;42.698;23.124;2022-10-28T10:47:19;118349.16;;;-140.64;56.24
7930;BME280;4010;42.698;23.124;2022-10-28T10:49:47;118349.16;;;-140.64;55.81
7930;BME280;4010;42.698;23.124;2022-10-28T10:52:18;118349.16;;;-140.64;57.41
7930;BME280;4010;42.698;23.124;2022-10-28T10:54:59;118349.16;;;-140.64;55.12
7930;BME280;4010;42.698;23.124;2022-10-28T10:57:27;118349.16;;;-140.64;56.66
7930;BME280;4010;42.698;23.124;2022-10-28T10:59:55;118349.16;;;-140.64;56.32
7930;BME280;4010;42.698;23.124;2022-10-28T11:02:26;118349.16;;;-140.64;54.96
7930;BME280;4010;42.698;23.124;2022-10-28T11:05:03;118349.16;;;-140.64;55.27
7930;BME280;4010;42.698;23.124;2022-10-28T11:07:32;118349.16;;;-140.64;53.74
7930;BME280;4010;42.698;23.124;2022-10-28T11:09:59;118349.16;;;-140.64;53.08
7930;BME280;4010;42.698;23.124;2022-10-28T11:12:28;118349.16;;;-140.64;53.91
7930;BME280;4010;42.698;23.124;2022-10-28T11:14:57;118349.16;;;-140.64;53.00
7930;BME280;4010;42.698;23.124;2022-10-28T11:17:27;118349.16;;;-140.64;52.82
7930;BME280;4010;42.698;23.124;2022-10-28T11:19:56;118349.16;;;-140.64;53.59
7930;BME280;4010;42.698;23.124;2022-10-28T11:22:39;118349.16;;;-140.64;52.72
7930;BME280;4010;42.698;23.124;2022-10-28T11:25:27;118349.16;;;-140.64;54.71
7930;BME280;4010;42.698;23.124;2022-10-28T11:28:15;118349.16;;;-140.64;53.13
7930;BME280;4010;42.698;23.124;2022-10-28T11:30:56;118349.16;;;-140.64;52.28
7930;BME280;4010;42.698;23.124;2022-10-28T11:33:32;118349.16;;;-140.64;52.68
7930;BME280;4010;42.698;23.124;2022-10-28T11:36:10;118349.16;;;-140.64;52.88
7930;BME280;4010;42.698;23.124;2022-10-28T11:41:45;118349.16;;;-140.64;52.03
7930;BME280;4010;42.698;23.124;2022-10-28T11:44:25;118349.16;;;-140.64;51.41
7930;BME280;4010;42.698;23.124;2022-10-28T11:47:04;118349.16;;;-140.64;51.19
7930;BME280;4010;42.698;23.124;2022-10-28T11:49:55;118349.16;;;-140.64;51.15
7930;BME280;4010;42.698;23.124;2022-10-28T11:52:35;118349.16;;;-140.64;48.97
7930;BME280;4010;42.698;23.124;2022-10-28T11:55:15;118349.16;;;-140.64;47.96
7930;BME280;4010;42.698;23.124;2022-10-28T11:57:52;118349.16;;;-140.64;49.08
7930;BME280;4010;42.698;23.124;2022-10-28T12:00:35;118349.16;;;-140.64;49.77
7930;BME280;4010;42.698;23.124;2022-10-28T12:03:43;118349.16;;;-140.64;49.95
7930;BME280;4010;42.698;23.124;2022-10-28T12:06:23;118349.16;;;-140.64;49.60
7930;BME280;4010;42.698;23.124;2022-10-28T12:09:06;118349.16;;;-140.64;49.10
7930;BME280;4010;42.698;23.124;2022-10-28T12:11:45;118349.16;;;-140.64;48.61
7930;BME280;4010;42.698;23.124;2022-10-28T12:14:22;118349.16;;;-140.64;49.31
7930;BME280;4010;42.698;23.124;2022-10-28T12:16:57;118349.16;;;-140.64;49.44
7930;BME280;4010;42.698;23.124;2022-10-28T12:19:31;118349.16;;;-140.64;49.44
7930;BME280;4010;42.698;23.124;2022-10-28T12:22:08;118349.16;;;-140.64;49.09
7930;BME280;4010;42.698;23.124;2022-10-28T12:24:38;118349.16;;;-140.64;49.61
7930;BME280;4010;42.698;23.124;2022-10-28T12:27:12;118349.16;;;-140.64;48.10
7930;BME280;4010;42.698;23.124;2022-10-28T12:29:44;118349.16;;;-140.64;50.67
7930;BME280;4010;42.698;23.124;2022-10-28T12:32:13;118349.16;;;-140.64;47.52
7930;BME280;4010;42.698;23.124;2022-10-28T12:34:46;118349.16;;;-140.64;48.92
7930;BME280;4010;42.698;23.124;2022-10-28T12:37:20;118349.16;;;-140.64;47.71
7930;BME280;4010;42.698;23.124;2022-10-28T12:39:53;118349.16;;;-140.64;49.01
7930;BME280;4010;42.698;23.124;2022-10-28T12:42:28;118349.16;;;-140.64;48.55
7930;BME280;4010;42.698;23.124;2022-10-28T12:44:58;118349.16;;;-140.64;47.75
7930;BME280;4010;42.698;23.124;2022-10-28T12:47:34;118349.16;;;-140.64;47.98
7930;BME280;4010;42.698;23.124;2022-10-28T12:50:11;118349.16;;;-140.64;47.17
7930;BME280;4010;42.698;23.124;2022-10-28T12:52:47;118349.16;;;-140.64;48.06
7930;BME280;4010;42.698;23.124;2022-10-28T12:55:26;118349.16;;;-140.64;48.07
7930;BME280;4010;42.698;23.124;2022-10-28T12:58:00;118349.16;;;-140.64;48.53